Time;durP1;ratioP1;P1;durP2;ratioP2;P2;SDS_P1;SDS_P2;PMS_P1;PMS_P2;Temp;Humidity;BMP_temperature;BMP_pressure;BME280_temperature;BME280_humidity;BME280_pressure;Samples;Min_cycle;Max_cycle;Signal;HPM_P1;HPM_P2
2021/10/10 00:00:56;;;;;;;8.40;6.97;;;;;;;8.63;76.67;97658.88;5074395;28;20261;-70
2021/10/10 00:03:21;;;;;;;11.07;6.53;;;;;;;8.46;77.77;97654.94;5074443;28;20296;-70
2021/10/10 00:05:47;;;;;;;9.17;6.80;;;;;;;8.49;77.45;97658.97;5073947;28;20223;-71
2021/10/10 00:08:12;;;;;;;11.40;6.83;;;;;;;8.42;77.43;97658.91;5074715;28;20209;-70
2021/10/10 00:10:38;;;;;;;13.87;7.03;;;;;;;8.62;76.74;97657.25;5074420;28;20637;-70
2021/10/10 00:13:03;;;;;;;13.17;8.33;;;;;;;8.47;77.38;97666.19;5073638;28;20191;-71
2021/10/10 00:15:29;;;;;;;11.70;7.00;;;;;;;8.46;76.91;97665.41;5073980;28;20855;-70
2021/10/10 00:17:54;;;;;;;8.87;6.80;;;;;;;8.47;76.87;97656.53;5056138;28;20209;-70
2021/10/10 00:20:20;;;;;;;10.87;7.13;;;;;;;8.56;76.19;97660.63;5074107;28;20193;-70
2021/10/10 00:22:46;;;;;;;9.53;6.73;;;;;;;8.72;75.80;97662.94;5074106;28;20197;-70
2021/10/10 00:25:11;;;;;;;11.70;7.00;;;;;;;8.59;76.32;97649.78;5074068;28;20185;-70
2021/10/10 00:27:37;;;;;;;11.47;7.10;;;;;;;8.56;76.29;97657.22;5074405;28;20200;-70
2021/10/10 00:30:04;;;;;;;10.27;6.40;;;;;;;8.40;76.84;97650.47;5073977;28;20319;-70
2021/10/10 00:32:30;;;;;;;12.07;7.20;;;;;;;8.34;77.54;97652.06;5073855;28;20189;-70
2021/10/10 00:34:56;;;;;;;10.30;6.97;;;;;;;8.44;77.32;97643.88;5073821;28;20189;-70
2021/10/10 00:37:21;;;;;;;14.70;7.27;;;;;;;8.53;76.80;97649.72;5073990;28;20185;-70
2021/10/10 00:39:46;;;;;;;12.03;7.17;;;;;;;8.65;76.12;97645.59;5073806;28;20220;-71
2021/10/10 00:42:12;;;;;;;11.23;7.07;;;;;;;8.84;75.49;97642.28;5055844;28;20202;-70
2021/10/10 00:44:37;;;;;;;8.97;7.33;;;;;;;8.75;75.52;97644.22;5074001;28;20189;-70
2021/10/10 00:47:03;;;;;;;11.67;7.73;;;;;;;8.44;77.12;97643.06;5073743;28;20188;-70
2021/10/10 00:49:28;;;;;;;11.47;7.43;;;;;;;8.55;76.80;97639.91;5074094;28;20619;-70
2021/10/10 00:51:57;;;;;;;9.03;6.90;;;;;;;8.49;77.15;97638.88;5073009;28;20169;-71
2021/10/10 00:54:23;;;;;;;12.70;7.77;;;;;;;8.66;75.79;97636.75;5073758;28;20611;-71
2021/10/10 00:56:50;;;;;;;15.97;8.10;;;;;;;8.63;76.18;97645.00;5073594;28;20189;-71
2021/10/10 00:59:21;;;;;;;11.70;8.20;;;;;;;8.72;76.42;97643.81;5073251;28;20270;-70
2021/10/10 01:01:49;;;;;;;11.20;6.97;;;;;;;8.56;76.79;97644.16;5073490;28;20169;-71
2021/10/10 01:04:14;;;;;;;13.67;8.03;;;;;;;8.21;78.04;97645.88;5072899;28;20173;-70
2021/10/10 01:06:39;;;;;;;9.53;6.97;;;;;;;8.12;78.88;97644.44;5073621;28;20178;-70
2021/10/10 01:09:05;;;;;;;11.17;7.23;;;;;;;7.94;79.16;97642.28;5072936;28;20201;-71
2021/10/10 01:11:30;;;;;;;11.23;7.40;;;;;;;8.08;78.84;97637.97;5054735;28;20232;-70
2021/10/10 01:13:56;;;;;;;10.93;7.50;;;;;;;8.10;78.70;97638.56;5072687;28;20250;-70
2021/10/10 01:16:22;;;;;;;12.60;7.50;;;;;;;7.97;79.17;97638.50;5054958;28;20185;-70
2021/10/10 01:18:47;;;;;;;10.43;7.87;;;;;;;7.89;79.86;97634.22;5073304;28;20185;-71
2021/10/10 01:21:12;;;;;;;11.30;7.93;;;;;;;7.90;79.52;97628.81;5072605;28;20190;-71
2021/10/10 01:23:38;;;;;;;10.00;7.07;;;;;;;7.94;79.30;97629.22;5054805;28;20263;-71
2021/10/10 01:26:03;;;;;;;9.63;7.53;;;;;;;7.78;79.92;97632.91;5072401;28;20173;-70
2021/10/10 01:28:29;;;;;;;12.60;7.57;;;;;;;7.76;79.93;97631.47;5054808;28;20494;-70
2021/10/10 01:30:54;;;;;;;12.43;7.33;;;;;;;7.95;79.11;97623.00;5073017;28;20661;-71
2021/10/10 01:33:19;;;;;;;9.83;7.20;;;;;;;7.88;79.52;97617.72;5072856;28;20264;-70
2021/10/10 01:35:45;;;;;;;11.00;7.50;;;;;;;7.84;79.64;97621.72;5072775;28;20185;-70
2021/10/10 01:38:15;;;;;;;11.60;7.63;;;;;;;7.79;79.79;97615.47;5072411;28;20702;-72
2021/10/10 01:40:44;;;;;;;11.40;7.43;;;;;;;7.81;79.60;97614.25;5072855;28;20226;-71
2021/10/10 01:43:09;;;;;;;9.17;6.97;;;;;;;7.90;79.36;97612.34;5072664;28;20671;-70
2021/10/10 01:45:34;;;;;;;11.83;7.83;;;;;;;7.83;79.77;97607.06;5072626;28;20181;-70
2021/10/10 01:48:00;;;;;;;12.17;7.40;;;;;;;7.77;79.95;97607.00;5072172;28;20303;-70
2021/10/10 01:50:26;;;;;;;13.50;7.70;;;;;;;7.80;80.11;97604.81;5072720;28;20224;-70
2021/10/10 01:52:51;;;;;;;11.10;7.43;;;;;;;7.79;79.89;97603.22;5072213;28;20189;-71
2021/10/10 01:55:19;;;;;;;13.23;7.67;;;;;;;7.80;79.83;97604.81;5072398;28;20173;-70
2021/10/10 01:57:45;;;;;;;9.70;7.07;;;;;;;7.66;80.62;97600.50;5071791;28;20260;-71
2021/10/10 02:00:11;;;;;;;12.83;7.50;;;;;;;7.69;80.33;97599.31;5072268;28;20302;-70
2021/10/10 02:02:37;;;;;;;17.13;8.43;;;;;;;7.60;80.83;97596.03;5072287;28;20224;-70
2021/10/10 02:05:03;;;;;;;10.93;8.10;;;;;;;7.43;81.55;97592.84;5053776;28;20200;-71
2021/10/10 02:07:28;;;;;;;10.60;7.30;;;;;;;7.53;81.20;97597.75;5072037;28;20677;-70
2021/10/10 02:09:54;;;;;;;11.73;7.63;;;;;;;7.42;81.42;97582.59;5071723;28;20189;-71
2021/10/10 02:12:19;;;;;;;12.33;7.37;;;;;;;7.25;82.57;97586.44;5072057;28;20777;-70
2021/10/10 02:14:45;;;;;;;10.40;7.47;;;;;;;7.13;83.17;97585.34;5072473;28;20193;-70
2021/10/10 02:17:10;;;;;;;14.20;7.50;;;;;;;7.41;82.29;97588.84;5072381;28;20725;-70
2021/10/10 02:19:35;;;;;;;10.27;7.20;;;;;;;7.45;81.78;97595.28;5072277;28;20188;-70
2021/10/10 02:22:01;;;;;;;13.17;8.43;;;;;;;7.71;80.98;97594.69;5072204;28;20650;-70
2021/10/10 02:24:26;;;;;;;14.80;8.37;;;;;;;7.57;81.75;97593.78;5054289;28;20204;-70
2021/10/10 02:26:52;;;;;;;12.23;8.30;;;;;;;7.47;82.67;97586.25;5071785;28;20601;-71
2021/10/10 02:29:18;;;;;;;11.63;8.47;;;;;;;7.55;82.24;97590.56;5071699;28;20223;-71
2021/10/10 02:31:43;;;;;;;10.37;7.73;;;;;;;7.41;83.04;97592.22;5072420;28;20647;-70
2021/10/10 02:34:13;;;;;;;12.53;7.50;;;;;;;7.32;82.99;97592.53;5071245;28;20208;-72
2021/10/10 02:36:40;;;;;;;11.93;7.67;;;;;;;7.29;83.71;97595.53;5054242;28;20287;-72
2021/10/10 02:39:06;;;;;;;13.50;7.70;;;;;;;7.16;83.91;97588.38;5071588;28;20177;-71
2021/10/10 02:41:31;;;;;;;16.10;8.37;;;;;;;7.26;84.31;97594.09;5072219;28;20693;-71
2021/10/10 02:43:57;;;;;;;10.93;7.80;;;;;;;7.33;83.96;97592.38;5053748;28;20689;-71
2021/10/10 02:46:22;;;;;;;15.27;8.47;;;;;;;7.36;83.44;97594.59;5071910;28;20502;-70
2021/10/10 02:48:47;;;;;;;14.30;8.67;;;;;;;7.32;83.09;97595.97;5071771;28;20173;-70
2021/10/10 02:51:13;;;;;;;10.97;8.17;;;;;;;7.48;82.68;97598.31;5072265;28;20265;-70
2021/10/10 02:53:39;;;;;;;14.70;8.00;;;;;;;7.07;84.23;97590.31;5071935;28;20185;-70
2021/10/10 02:56:04;;;;;;;12.53;7.97;;;;;;;7.14;84.34;97592.16;5071427;28;20189;-71
2021/10/10 02:58:30;;;;;;;10.70;7.83;;;;;;;7.20;84.37;97588.81;5071594;28;20311;-71
2021/10/10 03:00:55;;;;;;;14.30;8.43;;;;;;;7.15;84.54;97591.97;5072201;28;20272;-70
2021/10/10 03:03:21;;;;;;;11.97;7.80;;;;;;;7.00;85.25;97589.41;5071633;28;20653;-70
2021/10/10 03:05:46;;;;;;;11.83;8.37;;;;;;;6.92;86.17;97593.91;5072121;28;20235;-70
2021/10/10 03:08:12;;;;;;;13.30;8.60;;;;;;;7.05;85.31;97591.47;5053980;28;20268;-71
2021/10/10 03:10:37;;;;;;;11.17;7.70;;;;;;;7.12;84.87;97596.75;5056065;28;20696;-71
2021/10/10 03:13:03;;;;;;;12.00;8.57;;;;;;;6.94;85.24;97591.94;5074795;28;20200;-71
2021/10/10 03:15:28;;;;;;;11.30;7.60;;;;;;;6.84;86.02;97594.84;5057601;28;20192;-70
2021/10/10 03:17:54;;;;;;;17.27;7.93;;;;;;;6.78;85.99;97595.59;5075643;28;20193;-70
2021/10/10 03:20:19;;;;;;;13.90;7.90;;;;;;;6.81;85.79;97599.59;5075560;28;20181;-70
2021/10/10 03:22:45;;;;;;;12.17;8.60;;;;;;;6.74;86.70;97596.94;5075383;28;20649;-70
2021/10/10 03:25:10;;;;;;;14.27;9.20;;;;;;;6.62;86.99;97595.78;5075279;28;20193;-71
2021/10/10 03:27:35;;;;;;;11.57;8.10;;;;;;;6.64;88.03;97601.59;5074998;28;20185;-71
2021/10/10 03:30:01;;;;;;;12.90;8.73;;;;;;;6.41;89.25;97603.53;5075057;28;20297;-70
2021/10/10 03:32:26;;;;;;;14.30;8.83;;;;;;;6.41;89.98;97598.31;5074709;28;20181;-70
2021/10/10 03:34:51;;;;;;;13.93;8.83;;;;;;;6.39;89.84;97597.69;5074876;28;20260;-71
2021/10/10 03:37:17;;;;;;;11.97;8.73;;;;;;;6.39;90.33;97600.28;5075093;28;20796;-70
2021/10/10 03:39:42;;;;;;;13.60;8.37;;;;;;;6.49;90.07;97595.59;5074888;28;20192;-70
2021/10/10 03:42:08;;;;;;;14.17;8.60;;;;;;;6.38;90.73;97594.28;5074614;28;20223;-71
2021/10/10 03:44:33;;;;;;;16.33;9.27;;;;;;;6.50;90.11;97589.41;5056995;28;20198;-70
2021/10/10 03:46:59;;;;;;;15.77;8.80;;;;;;;6.62;88.80;97594.00;5074686;28;20299;-71
2021/10/10 03:49:24;;;;;;;11.07;8.50;;;;;;;6.71;88.42;97589.47;5074959;28;20185;-70
2021/10/10 03:51:50;;;;;;;14.50;9.53;;;;;;;6.62;88.63;97594.00;5074658;28;20650;-70
2021/10/10 03:54:55;;;;;;;12.47;8.77;;;;;;;6.47;88.83;97593.19;5074843;28;20231;-71
2021/10/10 03:57:03;;;;;;;12.63;8.87;;;;;;;6.43;89.31;97596.31;5074035;28;20185;-70
2021/10/10 03:59:28;;;;;;;12.93;8.40;;;;;;;6.33;89.96;97587.97;5074325;28;20710;-70
2021/10/10 04:01:54;;;;;;;12.53;8.53;;;;;;;6.31;89.85;97587.34;5074091;28;20181;-71
2021/10/10 04:04:19;;;;;;;15.33;9.37;;;;;;;6.28;89.77;97585.94;5073997;28;20185;-71
2021/10/10 04:06:44;;;;;;;16.23;9.67;;;;;;;6.23;90.48;97586.47;5074678;28;20189;-70
2021/10/10 04:09:10;;;;;;;17.87;9.73;;;;;;;6.30;90.21;97594.34;5074118;28;20545;-71
2021/10/10 04:11:35;;;;;;;11.73;8.87;;;;;;;6.13;91.23;97593.72;5074146;28;20577;-71
2021/10/10 04:14:00;;;;;;;15.70;9.60;;;;;;;6.21;91.25;97596.25;5073822;28;20335;-70
2021/10/10 04:16:26;;;;;;;15.00;9.30;;;;;;;6.10;91.70;97591.47;5074130;28;20239;-70
2021/10/10 04:18:51;;;;;;;15.03;9.17;;;;;;;6.25;90.53;97591.47;5074318;28;20189;-71
2021/10/10 04:21:16;;;;;;;15.83;9.33;;;;;;;6.03;91.95;97592.34;5055892;28;20280;-70
2021/10/10 04:23:42;;;;;;;13.47;9.60;;;;;;;6.20;91.12;97584.22;5074274;28;20262;-71
2021/10/10 04:26:07;;;;;;;13.60;8.90;;;;;;;6.07;92.11;97583.22;5074394;28;20193;-70
2021/10/10 04:28:33;;;;;;;14.13;9.60;;;;;;;5.99;92.50;97585.91;5074430;28;20564;-70
2021/10/10 04:30:58;;;;;;;17.03;9.00;;;;;;;6.04;92.04;97591.38;5073263;28;20189;-71
2021/10/10 04:33:23;;;;;;;13.93;9.07;;;;;;;6.12;91.58;97588.69;5073771;28;20266;-70
2021/10/10 04:35:49;;;;;;;21.80;9.53;;;;;;;6.05;92.00;97593.81;5073792;28;20524;-71
2021/10/10 04:38:15;;;;;;;14.53;8.93;;;;;;;5.96;92.19;97594.88;5073870;28;20196;-71
2021/10/10 04:40:42;;;;;;;13.00;9.50;;;;;;;5.96;92.54;97592.28;5073472;28;20185;-71
2021/10/10 04:43:08;;;;;;;14.07;9.17;;;;;;;5.91;92.70;97584.16;5073822;28;20200;-71
2021/10/10 04:45:34;;;;;;;19.40;9.87;;;;;;;5.92;92.50;97584.97;5055871;28;20181;-70
2021/10/10 04:48:00;;;;;;;13.27;9.60;;;;;;;6.06;91.85;97577.22;5073626;28;20285;-70
2021/10/10 04:50:25;;;;;;;14.37;10.13;;;;;;;6.14;91.08;97577.09;5073503;28;20173;-70
2021/10/10 04:52:50;;;;;;;19.37;9.23;;;;;;;6.12;90.71;97579.09;5055538;28;20201;-71
2021/10/10 04:55:16;;;;;;;16.67;9.07;;;;;;;6.11;90.86;97579.28;5066073;28;20181;-70
2021/10/10 04:57:41;;;;;;;19.37;9.73;;;;;;;5.95;91.48;97585.47;5055158;28;20189;-70
2021/10/10 05:00:07;;;;;;;15.00;10.10;;;;;;;5.79;92.46;97578.59;5055597;28;20284;-70
2021/10/10 05:02:33;;;;;;;17.63;9.67;;;;;;;5.62;93.70;97584.91;5066165;28;20646;-71
2021/10/10 05:04:58;;;;;;;15.63;9.40;;;;;;;5.69;93.94;97587.59;5072561;28;20268;-70
2021/10/10 05:07:24;;;;;;;20.03;9.60;;;;;;;5.92;92.10;97585.78;5073379;28;20177;-70
2021/10/10 05:09:49;;;;;;;14.67;10.33;;;;;;;5.79;92.42;97582.97;5072720;28;20632;-71
2021/10/10 05:12:14;;;;;;;18.07;9.50;;;;;;;5.88;92.27;97587.13;5072924;28;20201;-70
2021/10/10 05:14:40;;;;;;;13.03;9.37;;;;;;;5.99;91.43;97585.91;5054221;28;20680;-70
2021/10/10 05:17:06;;;;;;;14.87;10.30;;;;;;;6.09;90.59;97589.03;5072986;28;20181;-70
2021/10/10 05:19:31;;;;;;;16.07;10.03;;;;;;;5.89;91.04;97593.97;5073132;28;20249;-70
2021/10/10 05:21:57;;;;;;;15.87;10.73;;;;;;;5.94;91.24;97594.25;5072553;28;20267;-71
2021/10/10 05:24:22;;;;;;;16.20;9.67;;;;;;;6.19;89.62;97587.78;5072772;28;20663;-71
2021/10/10 05:26:47;;;;;;;14.27;9.40;;;;;;;6.11;89.85;97590.50;5073123;28;20292;-70
2021/10/10 05:29:13;;;;;;;16.63;10.13;;;;;;;6.05;90.07;97593.81;5054536;28;20499;-71
2021/10/10 05:31:38;;;;;;;13.93;8.63;;;;;;;5.95;90.82;97595.88;5072223;28;20185;-71
2021/10/10 05:34:04;;;;;;;15.50;9.93;;;;;;;6.07;90.40;97583.22;5071765;28;20209;-71
2021/10/10 05:36:29;;;;;;;11.93;9.17;;;;;;;6.31;89.33;97589.94;5054661;28;20220;-71
2021/10/10 05:38:54;;;;;;;12.00;8.97;;;;;;;6.28;89.05;97588.53;5072916;28;20180;-71
2021/10/10 05:41:20;;;;;;;12.63;9.47;;;;;;;5.97;90.40;97595.66;5072723;28;20216;-71
2021/10/10 05:43:45;;;;;;;14.67;9.30;;;;;;;5.96;90.80;97597.47;5072965;28;20220;-71
2021/10/10 05:46:10;;;;;;;12.73;9.00;;;;;;;5.96;91.15;97588.88;5071725;28;20189;-71
2021/10/10 05:48:36;;;;;;;12.70;9.33;;;;;;;5.85;92.17;97592.69;5072802;28;20189;-70
2021/10/10 05:51:01;;;;;;;20.10;9.97;;;;;;;6.33;89.28;97591.41;5054055;28;20177;-71
2021/10/10 05:53:27;;;;;;;13.17;9.30;;;;;;;6.31;89.04;97590.75;5054422;28;20197;-71
2021/10/10 05:56:03;;;;;;;17.23;9.67;;;;;;;6.60;87.08;97593.34;5071858;28;20174;-71
2021/10/10 05:58:31;;;;;;;14.07;9.70;;;;;;;6.70;86.69;97598.28;5054380;28;20212;-72
2021/10/10 06:00:57;;;;;;;14.60;9.57;;;;;;;6.43;87.99;97593.72;5072431;28;20614;-71
2021/10/10 06:03:22;;;;;;;15.73;9.80;;;;;;;6.52;87.61;97600.47;5072176;28;20246;-71
2021/10/10 06:05:47;;;;;;;14.93;9.40;;;;;;;6.65;87.35;97598.81;5072631;28;20185;-72
2021/10/10 06:08:13;;;;;;;16.07;9.80;;;;;;;6.58;87.63;97595.31;5072308;28;20189;-70
2021/10/10 06:10:39;;;;;;;14.63;9.80;;;;;;;6.65;87.33;97605.81;5054020;28;20229;-71
2021/10/10 06:13:08;;;;;;;13.67;9.23;;;;;;;6.59;88.08;97606.53;5053853;28;20205;-71
2021/10/10 06:15:34;;;;;;;16.13;8.60;;;;;;;6.62;88.29;97608.81;5072659;28;20189;-70
2021/10/10 06:18:00;;;;;;;12.17;8.70;;;;;;;6.92;86.57;97602.56;5072276;28;20185;-71
2021/10/10 06:20:26;;;;;;;15.30;9.30;;;;;;;7.05;86.17;97613.13;5072391;28;20588;-70
2021/10/10 06:22:51;;;;;;;11.33;8.67;;;;;;;7.16;84.67;97606.63;5072128;28;20200;-71
2021/10/10 06:25:17;;;;;;;15.43;9.13;;;;;;;7.23;84.84;97612.72;5054040;28;20283;-70
2021/10/10 06:27:45;;;;;;;12.60;8.80;;;;;;;7.38;83.97;97607.44;5072284;28;20661;-71
2021/10/10 06:30:11;;;;;;;11.57;8.37;;;;;;;7.34;83.74;97611.44;5071992;28;20182;-70
2021/10/10 06:32:38;;;;;;;14.00;8.87;;;;;;;7.42;83.25;97617.31;5072584;28;20223;-70
2021/10/10 06:35:07;;;;;;;16.97;9.27;;;;;;;7.34;83.21;97617.44;5072527;28;20185;-71
2021/10/10 06:37:33;;;;;;;14.83;9.23;;;;;;;7.46;82.42;97617.78;5072327;28;20189;-71
2021/10/10 06:39:59;;;;;;;17.23;11.40;;;;;;;7.88;80.87;97619.53;5069680;28;20231;-69
2021/10/10 06:42:25;;;;;;;15.07;10.93;;;;;;;7.83;81.27;97619.28;5072171;28;20193;-71
2021/10/10 06:44:50;;;;;;;15.63;11.33;;;;;;;8.08;79.99;97628.31;5075025;28;20637;-71
2021/10/10 06:47:16;;;;;;;13.27;8.70;;;;;;;8.22;79.51;97624.81;5057817;28;20264;-68
2021/10/10 06:49:42;;;;;;;11.50;8.73;;;;;;;8.21;80.23;97623.19;5076117;28;20641;-68
2021/10/10 06:52:07;;;;;;;16.47;9.43;;;;;;;8.45;78.36;97627.19;5075892;28;20224;-68
2021/10/10 06:54:32;;;;;;;11.57;8.63;;;;;;;8.55;77.42;97627.66;5057965;28;20251;-69
2021/10/10 06:56:58;;;;;;;15.07;9.53;;;;;;;8.46;78.24;97628.81;5075762;28;20189;-71
2021/10/10 06:59:23;;;;;;;14.63;9.17;;;;;;;8.71;77.82;97629.13;5075590;28;20268;-70
2021/10/10 07:01:49;;;;;;;15.03;9.00;;;;;;;8.43;81.50;97634.41;5075362;28;20539;-68
2021/10/10 07:04:14;;;;;;;12.10;8.73;;;;;;;8.61;83.27;97633.91;5074778;28;20181;-66
2021/10/10 07:06:40;;;;;;;15.40;8.67;;;;;;;8.45;81.53;97636.84;5075448;28;20177;-71
2021/10/10 07:09:05;;;;;;;11.60;8.60;;;;;;;8.69;82.00;97631.16;5075091;28;20186;-70
2021/10/10 07:11:30;;;;;;;16.13;9.60;;;;;;;8.48;79.95;97634.63;5075198;28;20261;-70
2021/10/10 07:13:56;;;;;;;11.47;8.53;;;;;;;8.39;80.01;97641.03;5074739;28;20718;-70
2021/10/10 07:16:26;;;;;;;11.47;8.57;;;;;;;8.34;78.76;97646.84;5075142;28;20197;-69
2021/10/10 07:18:53;;;;;;;18.07;9.67;;;;;;;8.53;78.96;97640.09;5075548;28;20197;-68
2021/10/10 07:26:38;;;;;;;12.40;8.57;;;;;;;8.33;79.73;97645.22;5075276;28;20196;-68
2021/10/10 07:29:04;;;;;;;10.67;8.43;;;;;;;8.65;79.22;97643.78;5074655;28;20181;-68
2021/10/10 07:31:30;;;;;;;13.80;8.83;;;;;;;8.65;77.71;97641.16;5074771;28;20192;-69
2021/10/10 07:33:55;;;;;;;12.37;9.00;;;;;;;8.76;76.56;97643.25;5074689;28;20200;-69
2021/10/10 07:36:21;;;;;;;11.80;7.80;;;;;;;8.82;76.62;97651.31;5057188;28;20197;-70
2021/10/10 07:38:46;;;;;;;11.33;8.50;;;;;;;8.69;76.70;97650.22;5074759;28;20177;-68
2021/10/10 07:41:12;;;;;;;15.07;9.07;;;;;;;8.88;76.93;97656.56;5075006;28;20591;-70
2021/10/10 07:43:39;;;;;;;14.47;8.77;;;;;;;8.91;76.51;97650.16;5074951;28;20556;-68
2021/10/10 07:46:22;;;;;;;12.57;8.10;;;;;;;8.55;76.35;97655.59;5056580;28;20626;-72
2021/10/10 07:48:48;;;;;;;13.23;8.73;;;;;;;8.82;76.11;97656.53;5075035;28;20177;-73
2021/10/10 07:51:17;;;;;;;12.97;9.17;;;;;;;9.06;74.63;97662.09;5074402;28;20211;-70
2021/10/10 07:53:42;;;;;;;14.63;9.83;;;;;;;8.82;74.98;97661.75;5074208;28;20633;-71
2021/10/10 07:56:07;;;;;;;13.07;8.73;;;;;;;9.19;76.31;97659.50;5068840;28;20205;-68
2021/10/10 07:58:33;;;;;;;15.50;8.93;;;;;;;9.31;73.17;97651.09;5074000;28;20217;-70
2021/10/10 08:00:59;;;;;;;16.27;9.00;;;;;;;9.31;73.52;97667.59;5074165;28;20554;-68
2021/10/10 08:03:24;;;;;;;12.33;7.83;;;;;;;9.79;72.40;97655.22;5055923;28;20173;-67
2021/10/10 08:05:50;;;;;;;16.47;8.77;;;;;;;9.86;71.41;97663.09;5074021;28;20216;-71
2021/10/10 08:08:15;;;;;;;13.43;8.80;;;;;;;10.14;70.45;97657.66;5073458;28;20710;-69
2021/10/10 08:10:40;;;;;;;12.27;8.97;;;;;;;10.08;70.57;97655.84;5055510;28;20217;-70
2021/10/10 08:13:07;;;;;;;14.70;9.10;;;;;;;9.84;69.29;97657.25;5073847;28;20609;-69
2021/10/10 08:15:32;;;;;;;20.07;9.57;;;;;;;9.59;69.41;97652.56;5073617;28;20189;-71
2021/10/10 08:17:58;;;;;;;12.17;8.50;;;;;;;9.43;69.95;97658.19;5073863;28;20596;-69
2021/10/10 08:20:25;;;;;;;12.73;9.57;;;;;;;9.18;71.26;97659.72;5073418;28;20197;-70
2021/10/10 08:22:50;;;;;;;15.03;9.43;;;;;;;9.56;70.67;97654.78;5073464;28;20215;-70
2021/10/10 08:25:16;;;;;;;13.87;9.80;;;;;;;9.24;70.80;97665.97;5073000;28;20189;-71
2021/10/10 08:27:44;;;;;;;15.30;9.90;;;;;;;9.36;70.32;97656.56;5074280;28;20663;-69
2021/10/10 08:30:12;;;;;;;15.77;9.87;;;;;;;9.58;69.92;97655.41;5073643;28;20227;-70
2021/10/10 08:32:39;;;;;;;15.83;9.67;;;;;;;9.71;69.93;97652.78;5073945;28;20208;-70
2021/10/10 08:35:06;;;;;;;17.10;9.57;;;;;;;9.65;69.71;97661.44;5074003;28;20188;-70
2021/10/10 08:37:32;;;;;;;15.97;9.97;;;;;;;9.74;68.18;97657.66;5070829;28;20235;-70
2021/10/10 08:39:57;;;;;;;19.80;9.37;;;;;;;9.80;68.00;97663.91;5072539;28;20197;-70
2021/10/10 08:42:30;;;;;;;12.20;9.20;;;;;;;9.82;67.23;97661.88;5072980;28;20268;-69
2021/10/10 08:45:08;;;;;;;16.97;9.13;;;;;;;10.01;66.95;97658.47;5073346;28;20181;-68
2021/10/10 08:47:42;;;;;;;15.83;8.80;;;;;;;9.59;65.09;97667.47;5072824;28;20173;-69
2021/10/10 08:50:29;;;;;;;14.30;8.57;;;;;;;9.57;67.35;97667.69;5054978;28;20216;-69
2021/10/10 08:52:58;;;;;;;13.23;8.63;;;;;;;9.98;66.33;97675.38;5060076;28;20189;-68
2021/10/10 08:55:25;;;;;;;22.47;10.80;;;;;;;10.19;65.57;97668.38;5065379;28;20212;-69
2021/10/10 08:57:52;;;;;;;14.20;9.93;;;;;;;10.20;66.70;97665.53;5057496;28;20182;-69
2021/10/10 09:00:20;;;;;;;12.83;9.10;;;;;;;10.38;66.93;97670.97;5054648;28;20177;-68
2021/10/10 09:02:51;;;;;;;16.53;10.10;;;;;;;10.46;64.95;97671.78;5053370;28;20630;-68
2021/10/10 09:05:17;;;;;;;12.93;8.93;;;;;;;10.40;65.35;97668.97;5071623;28;20197;-70
2021/10/10 09:07:44;;;;;;;15.23;8.87;;;;;;;10.61;64.31;97673.16;5072462;28;20189;-69
2021/10/10 09:10:17;;;;;;;15.67;9.33;;;;;;;10.54;64.30;97677.59;5072116;28;20247;-68
2021/10/10 09:12:42;;;;;;;19.83;9.07;;;;;;;10.58;64.99;97670.16;5067835;28;20201;-69
2021/10/10 09:15:09;;;;;;;12.13;9.13;;;;;;;10.61;64.77;97659.25;5067031;28;20250;-68
2021/10/10 09:17:34;;;;;;;18.03;9.50;;;;;;;10.19;66.04;97661.34;5070459;28;20189;-69
2021/10/10 09:20:01;;;;;;;12.40;8.97;;;;;;;10.21;66.72;97659.28;5072298;28;20204;-68
2021/10/10 09:22:27;;;;;;;16.17;9.37;;;;;;;10.43;65.46;97660.69;5072154;28;20182;-68
2021/10/10 09:24:55;;;;;;;13.70;8.70;;;;;;;10.65;64.90;97661.25;5072400;28;20200;-69
2021/10/10 09:27:26;;;;;;;16.10;8.90;;;;;;;10.73;64.61;97665.47;5055226;28;20193;-69
2021/10/10 09:29:52;;;;;;;16.03;9.17;;;;;;;10.79;63.10;97667.28;5055784;28;20552;-68
2021/10/10 09:32:20;;;;;;;12.57;8.57;;;;;;;10.71;64.02;97665.66;5072788;28;20663;-68
2021/10/10 09:34:49;;;;;;;11.73;8.20;;;;;;;10.61;65.11;97667.91;5054991;28;20181;-71
2021/10/10 09:39:54;;;;;;;9.50;7.70;;;;;;;10.72;62.44;97656.81;5072240;28;20599;-72
2021/10/10 09:42:41;;;;;;;12.97;7.83;;;;;;;10.81;64.73;97649.53;5072667;28;20211;-67
2021/10/10 09:45:17;;;;;;;16.73;9.20;;;;;;;10.66;63.19;97664.69;5071749;28;20510;-67
2021/10/10 09:47:52;;;;;;;13.03;7.43;;;;;;;10.72;64.97;97667.28;5071695;28;20185;-68
2021/10/10 09:50:18;;;;;;;11.93;7.97;;;;;;;11.01;60.18;97667.81;5054264;28;20211;-69
2021/10/10 09:52:44;;;;;;;13.63;7.47;;;;;;;10.97;60.76;97666.63;5072250;28;20229;-69
2021/10/10 09:55:12;;;;;;;11.97;8.13;;;;;;;10.56;60.34;97669.53;5072203;28;20189;-68
2021/10/10 09:57:45;;;;;;;11.33;7.50;;;;;;;10.74;61.72;97660.03;5072168;28;20181;-68
2021/10/10 10:00:22;;;;;;;13.13;7.53;;;;;;;10.97;60.94;97664.00;5071370;28;20201;-68
2021/10/10 10:02:48;;;;;;;11.10;7.80;;;;;;;10.59;60.93;97661.28;5053049;28;20191;-68
2021/10/10 10:05:30;;;;;;;8.93;6.70;;;;;;;10.69;61.86;97662.47;5071119;28;20189;-70
2021/10/10 10:07:57;;;;;;;10.80;7.83;;;;;;;10.94;61.29;97656.53;5051160;28;20199;-69
2021/10/10 10:10:25;;;;;;;14.23;8.20;;;;;;;11.08;61.63;97656.28;5067221;28;20229;-69
2021/10/10 10:12:52;;;;;;;11.17;7.63;;;;;;;11.26;61.44;97650.34;5053379;28;20288;-69
2021/10/10 10:15:19;;;;;;;10.40;7.73;;;;;;;11.37;60.02;97656.78;5053826;28;20235;-69
2021/10/10 10:17:45;;;;;;;11.40;8.20;;;;;;;11.23;60.22;97656.03;5071703;28;20238;-71
2021/10/10 10:20:12;;;;;;;12.10;7.80;;;;;;;11.54;60.65;97652.63;5078386;28;20227;-69
2021/10/10 10:22:37;;;;;;;14.90;8.63;;;;;;;11.36;60.99;97650.72;5078613;28;20599;-68
2021/10/10 10:25:05;;;;;;;12.20;7.57;;;;;;;11.39;60.61;97647.66;5077329;28;20181;-70
2021/10/10 10:27:31;;;;;;;12.90;8.50;;;;;;;11.25;61.32;97657.44;5075358;28;20660;-69
2021/10/10 10:29:57;;;;;;;11.13;7.87;;;;;;;11.22;61.17;97654.41;5078668;28;20188;-70
2021/10/10 10:32:24;;;;;;;12.20;7.97;;;;;;;11.53;60.48;97654.47;5059783;28;20545;-71
2021/10/10 10:34:58;;;;;;;15.67;8.90;;;;;;;11.86;59.69;97651.66;5078262;28;20268;-70
2021/10/10 10:37:43;;;;;;;14.10;7.97;;;;;;;12.06;59.04;97649.66;5078217;28;20185;-71
2021/10/10 10:40:15;;;;;;;11.40;8.37;;;;;;;12.13;59.66;97654.06;5078670;28;20204;-69
2021/10/10 10:42:45;;;;;;;11.07;7.50;;;;;;;12.03;58.52;97647.47;5078602;28;20263;-71
2021/10/10 10:45:24;;;;;;;13.60;8.03;;;;;;;11.94;59.04;97646.13;5078206;28;20193;-69
2021/10/10 10:47:53;;;;;;;12.73;8.77;;;;;;;12.18;58.63;97647.16;5072937;28;20237;-69
2021/10/10 10:50:44;;;;;;;12.63;8.27;;;;;;;11.96;58.84;97638.03;5077258;28;20177;-71
2021/10/10 10:53:13;;;;;;;13.27;7.97;;;;;;;11.88;58.59;97640.91;5077186;28;20251;-71
2021/10/10 10:55:43;;;;;;;10.33;8.33;;;;;;;11.67;59.09;97649.91;5077590;28;20219;-70
2021/10/10 10:58:10;;;;;;;15.07;9.27;;;;;;;11.69;60.11;97645.28;5059361;28;20279;-70
2021/10/10 11:00:44;;;;;;;13.83;9.07;;;;;;;11.58;59.82;97643.31;5055035;28;20205;-70
2021/10/10 11:03:12;;;;;;;11.93;8.50;;;;;;;11.64;60.24;97637.22;5075961;28;20541;-71
2021/10/10 11:05:47;;;;;;;15.63;8.53;;;;;;;11.68;60.55;97636.59;5077024;28;20246;-71
2021/10/10 11:08:16;;;;;;;13.37;9.07;;;;;;;11.95;59.49;97633.78;5048660;28;20180;-70
2021/10/10 11:11:04;;;;;;;15.67;8.03;;;;;;;11.99;59.83;97635.78;5059446;28;20584;-70
2021/10/10 11:13:35;;;;;;;12.30;7.43;;;;;;;12.26;57.90;97635.56;5070501;28;20197;-70
2021/10/10 11:16:08;;;;;;;11.80;7.80;;;;;;;11.97;58.63;97637.81;5060267;28;20284;-70
2021/10/10 11:18:36;;;;;;;11.10;8.57;;;;;;;11.96;58.71;97636.22;5054051;28;20185;-72
2021/10/10 11:21:05;;;;;;;15.07;8.07;;;;;;;12.06;57.92;97640.97;5059657;28;20246;-70
2021/10/10 11:23:32;;;;;;;12.50;7.87;;;;;;;12.37;56.75;97635.63;5059940;28;20189;-70
2021/10/10 11:26:01;;;;;;;12.73;8.20;;;;;;;12.61;56.02;97638.44;5060136;28;20205;-71
2021/10/10 11:28:45;;;;;;;11.13;7.43;;;;;;;12.95;55.47;97629.16;5074524;28;20201;-70
2021/10/10 11:31:15;;;;;;;11.93;7.83;;;;;;;13.09;54.57;97623.53;5074045;28;20268;-71
2021/10/10 11:33:47;;;;;;;11.03;7.63;;;;;;;13.07;54.29;97630.84;5074164;28;20200;-71
2021/10/10 11:36:14;;;;;;;11.27;7.60;;;;;;;13.24;53.85;97626.63;5074823;28;20610;-70
2021/10/10 11:38:52;;;;;;;12.40;7.30;;;;;;;13.18;54.04;97624.88;5073995;28;20239;-71